GCTS/TFS METAR and TAF weather

Enter ICAO airport designator
Station Type Date Time Source
GCTS METAR 2018/10/16 20:30 UTC NOAA

GCTS 162030Z 06009KT 020V080 9999 BKN042 23/16 Q1020 NOSIG


Station Type Date Time Source
GCTS Decoded METAR 2018/10/16 20:30 UTC NOAA

Tenerife Sur, Spain (GCTS) 28-03N 016-34W 77M
Oct 16, 2018 - 04:30 PM EDT / 2018.10.16 2030 UTC
Wind: from the ENE (060 degrees) at 10 MPH (9 KT) (direction variable):0
Visibility: greater than 7 mile(s):0
Sky conditions: mostly cloudy
Temperature: 73 F (23 C)
Dew Point: 60 F (16 C)
Relative Humidity: 64%
Pressure (altimeter): 30.12 in. Hg (1020 hPa)
ob: GCTS 162030Z 06009KT 020V080 9999 BKN042 23/16 Q1020 NOSIG
cycle: 20

Station Type Date Time Source
GCTS TAF 2018/10/16 21:27 UTC NOAA

TAF GCTS 162000Z 1621/1721 01010KT 9999 FEW030 TX27/1715Z TN19/1705Z
BECMG 1621/1622 31006KT


Example: see airport list